createdAt,value
2023-05-15T00:00:31.546Z,1.2
2023-05-15T00:06:54.541Z,1.9
2023-05-15T00:13:14.475Z,1.9
2023-05-15T00:19:37.570Z,1.6
2023-05-15T00:25:57.533Z,1.6
2023-05-15T00:32:20.530Z,2.2
2023-05-15T00:38:40.576Z,2.2
2023-05-15T00:45:03.549Z,1.4
2023-05-15T00:51:23.531Z,1.4
2023-05-15T00:57:46.598Z,3.5
2023-05-15T01:04:06.510Z,3.5
2023-05-15T01:10:29.605Z,1.9
2023-05-15T01:16:49.546Z,1.9
2023-05-15T01:23:12.600Z,1.3
2023-05-15T01:29:32.491Z,1.3
2023-05-15T01:35:55.612Z,1.5
2023-05-15T01:42:15.469Z,1.5
2023-05-15T01:48:38.641Z,2
2023-05-15T01:54:58.542Z,2
2023-05-15T02:01:21.611Z,1.5
2023-05-15T02:07:41.504Z,1.5
2023-05-15T02:14:04.579Z,3.1
2023-05-15T02:20:24.525Z,3.1
2023-05-15T02:26:47.566Z,1.8
2023-05-15T02:33:07.647Z,1.8
2023-05-15T02:39:30.594Z,1.5
2023-05-15T02:45:50.575Z,1.5
2023-05-15T02:52:13.593Z,2.1
2023-05-15T02:58:33.522Z,2.1
2023-05-15T03:04:56.527Z,3.1
2023-05-15T03:11:16.565Z,3.1
2023-05-15T03:17:39.740Z,1.9
2023-05-15T03:23:59.636Z,1.9
2023-05-15T03:40:10.108Z,5.7
2023-05-15T03:46:29.529Z,5.7
2023-05-15T03:52:52.498Z,5.7
2023-05-15T03:59:12.592Z,5.7
2023-05-15T04:05:35.510Z,4.2
2023-05-15T04:11:55.564Z,4.2
2023-05-15T04:18:18.498Z,3.1
2023-05-15T04:24:38.517Z,3.1
2023-05-15T04:31:01.555Z,9.1
2023-05-15T04:37:21.500Z,9.1
2023-05-15T04:43:44.595Z,15.3
2023-05-15T04:50:04.579Z,15.3
2023-05-15T04:56:27.556Z,21.9
2023-05-15T05:02:47.596Z,21.9
2023-05-15T05:09:10.500Z,23.3
2023-05-15T05:15:30.608Z,23.3
2023-05-15T05:21:53.698Z,23.6
2023-05-15T05:28:13.506Z,23.6
2023-05-15T05:34:36.589Z,25.3
2023-05-15T05:40:56.511Z,25.3
2023-05-15T05:47:19.566Z,26.8
2023-05-15T05:53:39.722Z,26.8
2023-05-15T06:00:02.522Z,24.3
2023-05-15T06:06:22.559Z,24.3
2023-05-15T06:12:45.511Z,21.2
2023-05-15T06:19:05.612Z,21.2
2023-05-15T06:25:28.795Z,24.9
2023-05-15T06:31:48.625Z,24.9
2023-05-15T06:38:11.581Z,24.6
2023-05-15T06:44:31.538Z,24.6
2023-05-15T06:50:54.603Z,25.1
2023-05-15T06:57:14.597Z,25.1
2023-05-15T07:03:37.577Z,24.9
2023-05-15T07:09:57.567Z,24.9
2023-05-15T07:16:20.511Z,21.8
2023-05-15T07:22:48.293Z,21.8
2023-05-15T07:29:03.788Z,23.1
2023-05-15T07:35:23.837Z,23.1
2023-05-15T07:41:46.588Z,15.5
2023-05-15T07:48:06.543Z,15.5
2023-05-15T07:54:29.568Z,26.5
2023-05-15T08:00:49.557Z,26.5
2023-05-15T08:07:12.562Z,22.1
2023-05-15T08:13:32.572Z,22.1
2023-05-15T08:19:55.533Z,26.5
2023-05-15T08:26:15.597Z,26.5
2023-05-15T08:32:38.544Z,19.1
2023-05-15T08:38:58.573Z,19.1
2023-05-15T08:45:21.573Z,22.3
2023-05-15T09:02:04.284Z,22
2023-05-15T09:08:27.023Z,46.1
2023-05-15T09:14:46.520Z,46.1
2023-05-15T09:21:09.585Z,46.1
2023-05-15T09:27:29.538Z,46.1
2023-05-15T09:33:52.605Z,22
2023-05-15T09:40:15.056Z,22
2023-05-15T09:46:37.819Z,21.3
2023-05-15T09:52:57.547Z,21.3
2023-05-15T09:59:20.553Z,20.1
2023-05-15T10:05:43.337Z,20.1
2023-05-15T10:12:03.543Z,18.6
2023-05-15T10:18:23.540Z,18.6
2023-05-15T10:24:46.535Z,23.1
2023-05-15T10:31:06.536Z,23.1
2023-05-15T10:37:29.576Z,21.4
2023-05-15T10:43:49.530Z,21.4
2023-05-15T10:50:12.642Z,16.9
2023-05-15T10:56:32.649Z,16.9
2023-05-15T11:02:55.550Z,17.3
2023-05-15T11:09:15.542Z,17.3
2023-05-15T11:15:38.561Z,12.1
2023-05-15T11:21:58.535Z,12.1
2023-05-15T11:28:21.529Z,10.9
2023-05-15T11:34:41.550Z,10.9
2023-05-15T11:41:04.546Z,11
2023-05-15T11:47:24.517Z,11
2023-05-15T11:53:47.591Z,11.8
2023-05-15T12:00:07.531Z,11.8
2023-05-15T12:06:30.520Z,7.2
2023-05-15T12:12:50.526Z,7.2
2023-05-15T12:19:13.624Z,6.7
2023-05-15T12:25:33.532Z,6.7
2023-05-15T12:31:56.571Z,5.5
2023-05-15T12:38:16.533Z,5.5
2023-05-15T12:44:39.578Z,3.5
2023-05-15T12:50:59.535Z,3.5
2023-05-15T12:57:22.537Z,6.6
2023-05-15T13:03:42.593Z,6.6
2023-05-15T13:10:05.582Z,4.4
2023-05-15T13:16:25.565Z,4.4
2023-05-15T13:22:48.560Z,5.6
2023-05-15T13:29:08.568Z,5.6
2023-05-15T13:35:31.488Z,4.4
2023-05-15T13:41:51.548Z,4.4
2023-05-15T13:48:14.644Z,3.1
2023-05-15T13:54:34.536Z,3.1
2023-05-15T14:00:57.611Z,2.3
2023-05-15T14:07:17.517Z,2.3
2023-05-15T14:13:40.537Z,4.6
2023-05-15T14:36:28.532Z,3.7
2023-05-15T14:42:48.491Z,3.7
2023-05-15T14:49:11.541Z,4.3
2023-05-15T14:55:31.509Z,4.3
2023-05-15T15:01:54.540Z,5.2
2023-05-15T15:08:14.517Z,5.2
2023-05-15T15:14:37.878Z,2.8
2023-05-15T15:20:57.618Z,2.8
2023-05-15T15:27:20.478Z,9.2
2023-05-15T15:33:40.516Z,9.2
2023-05-15T15:40:03.583Z,8.8
2023-05-15T15:46:23.507Z,8.8
2023-05-15T15:52:46.586Z,7.6
2023-05-15T15:59:06.481Z,7.6
2023-05-15T16:05:29.629Z,7.5
2023-05-15T16:11:49.526Z,7.5
2023-05-15T16:18:12.784Z,5.7
2023-05-15T16:24:32.519Z,5.7
2023-05-15T16:30:55.695Z,5.6
2023-05-15T16:37:15.538Z,5.6
2023-05-15T16:43:38.492Z,4.3
2023-05-15T16:49:58.571Z,4.3
2023-05-15T16:56:21.547Z,3.5
2023-05-15T17:02:41.543Z,3.5
2023-05-15T17:09:04.588Z,4.6
2023-05-15T17:15:24.706Z,4.6
2023-05-15T17:21:47.712Z,6.5
2023-05-15T17:28:07.525Z,6.5
2023-05-15T17:34:30.566Z,7.2
2023-05-15T17:40:50.784Z,7.2
2023-05-15T17:47:13.521Z,6.7
2023-05-15T17:53:33.581Z,6.7
2023-05-15T17:59:56.614Z,9.5
2023-05-15T18:06:16.690Z,9.5
2023-05-15T18:12:39.650Z,7.6
2023-05-15T18:18:59.600Z,7.6
2023-05-15T18:25:22.527Z,7.4
2023-05-15T18:31:42.818Z,7.4
2023-05-15T18:38:05.685Z,7.1
2023-05-15T18:44:25.553Z,7.1
2023-05-15T18:50:48.733Z,7.5
2023-05-15T18:57:08.699Z,7.5
2023-05-15T19:03:31.574Z,10.4
2023-05-15T19:09:51.562Z,10.4
2023-05-15T19:16:14.694Z,15
2023-05-15T19:22:34.502Z,15
2023-05-15T19:28:57.818Z,14
2023-05-15T19:35:17.593Z,14
2023-05-15T19:57:48.499Z,23.8
2023-05-15T20:04:08.561Z,23.8
2023-05-15T20:10:31.655Z,23.8
2023-05-15T20:16:51.642Z,23.8
2023-05-15T20:23:14.456Z,4.5
2023-05-15T20:29:34.550Z,4.5
2023-05-15T20:35:57.542Z,4
2023-05-15T20:42:17.594Z,4
2023-05-15T20:48:40.509Z,4.2
2023-05-15T20:55:00.532Z,4.2
2023-05-15T21:01:23.549Z,5.1
2023-05-15T21:07:43.481Z,5.1
2023-05-15T21:14:06.530Z,5.1
2023-05-15T21:20:26.759Z,5.1
2023-05-15T21:26:49.500Z,4.7
2023-05-15T21:33:09.572Z,4.7
2023-05-15T21:39:32.489Z,5.9
2023-05-15T21:45:52.503Z,5.9
2023-05-15T21:52:15.518Z,4.4
2023-05-15T21:58:35.497Z,4.4
2023-05-15T22:22:52.502Z,6.1
2023-05-15T22:29:12.522Z,6.1
2023-05-15T22:35:35.553Z,6.1
2023-05-15T22:41:55.931Z,6.1
2023-05-15T22:48:18.503Z,4.8
2023-05-15T22:54:38.596Z,4.8
2023-05-15T23:01:01.595Z,2.9
2023-05-15T23:07:21.640Z,2.9
2023-05-15T23:13:44.576Z,3.7
2023-05-15T23:20:04.655Z,3.7
2023-05-15T23:26:27.526Z,4.4
2023-05-15T23:32:47.692Z,4.4
2023-05-15T23:39:10.584Z,4.8
2023-05-15T23:45:30.610Z,4.8
2023-05-15T23:51:53.575Z,4.4
2023-05-15T23:58:13.782Z,4.4
